GOBD Airport Information

Runway Information
Airport Frequencies
Airport Navaids
Airport Weather Information & NOTAM
ADDS - METARS form results

(0019 UTC 25 May 2020)
Data provider http://aviationweather.gov/metar/data/
 
METAR text: GOBD 250000Z 33005KT 8000 NSC 21/18 Q1014 NOSIG
Conditions at: GOBD (DAKAR/DIAGNE , SN) observed 0000 UTC 25 May 2020
Temperature: 21.0°C (70°F)
Dewpoint: 18.0°C (64°F) [RH = 83%]
Pressure (altimeter): 29.94 inches Hg (1014.0 mb)
Winds: from the NNW (330 degrees) at 6 MPH (5 knots; 2.6 m/s)
Visibility: 5 miles ( 8 km)
Ceiling: at least 12,000 feet AGL
Clouds: sky clear below 12,000 feet AGL
Weather: no significant weather observed at this time

Forecast for: GOBD (DAKAR/DIAGNE , SN)
Text: TAF GOBD 242330Z 2500/2606 34010KT 8000 NSC
Forecast period: 0000 UTC 25 May 2020 to 0600 UTC 26 May 2020
Forecast type: FROM: standard forecast or significant change
Winds: from the NNW (340 degrees) at 12 MPH (10 knots; 5.1 m/s)
Visibility: 5 miles (8 km)
Ceiling: unknown
Clouds: missing
Weather: no significant weather forecast for this period